Time;durP1;ratioP1;P1;durP2;ratioP2;P2;SDS_P1;SDS_P2;PMS_P1;PMS_P2;Temp;Humidity;BMP_temperature;BMP_pressure;BME280_temperature;BME280_humidity;BME280_pressure;Samples;Min_cycle;Max_cycle;Signal;HPM_P1;HPM_P2
2023/10/01 00:01:53;;;;;;;;;;;;;;;;;;5091475;28;19959;-75
2023/10/01 00:04:26;;;;;;;;;;;;;;;;;;5112051;27;19923;-74
2023/10/01 00:06:53;;;;;;;;;;;;;;;;;;5111400;28;20006;-74
2023/10/01 00:09:19;;;;;;;;;;;;;;;;;;5111688;28;20344;-74
2023/10/01 00:13:53;;;;;;;;;;;;;;;;;;5091370;27;19916;-74
2023/10/01 00:16:19;;;;;;;;;;;;;;;;;;5091353;28;20399;-74
2023/10/01 00:18:47;;;;;;;;;;;;;;;;;;5091592;28;19908;-74
2023/10/01 00:22:38;;;;;;;;;;;;;;;;;;5153333;27;20353;-74
2023/10/01 00:30:00;;;;;;;;;;;;;;;;;;5091459;27;20394;-74
2023/10/01 00:34:03;;;;;;;;;;;;;;;;;;5111902;27;20380;-73
2023/10/01 00:36:29;;;;;;;;;;;;;;;;;;5111746;28;19999;-74
2023/10/01 00:38:56;;;;;;;;;;;;;;;;;;5111712;28;20037;-74
2023/10/01 00:41:22;;;;;;;;;;;;;;;;;;5111263;28;19908;-74
2023/10/01 00:43:48;;;;;;;;;;;;;;;;;;5111722;28;19915;-74
2023/10/01 00:46:14;;;;;;;;;;;;;;;;;;5111525;28;19908;-74
2023/10/01 00:48:41;;;;;;;;;;;;;;;;;;5111423;28;20304;-74
2023/10/01 00:51:07;;;;;;;;;;;;;;;;;;5111482;28;19963;-74
2023/10/01 00:53:33;;;;;;;;;;;;;;;;;;5111308;28;19959;-74
2023/10/01 00:55:59;;;;;;;;;;;;;;;;;;5110910;28;19912;-74
2023/10/01 00:58:25;;;;;;;;;;;;;;;;;;5111334;28;19988;-74
2023/10/01 01:00:52;;;;;;;;;;;;;;;;;;5111592;28;19927;-74
2023/10/01 01:03:22;;;;;;;;;;;;;;;;;;5110751;28;19914;-74
2023/10/01 01:06:03;;;;;;;;;;;;;;;;;;5111299;28;19908;-74
2023/10/01 01:08:46;;;;;;;;;;;;;;;;;;5111423;28;19998;-75
2023/10/01 01:11:13;;;;;;;;;;;;;;;;;;5111269;28;19908;-75
2023/10/01 01:13:39;;;;;;;;;;;;;;;;;;5110944;28;19916;-74
2023/10/01 01:17:22;;;;;;;;;;;;;;;;;;5091196;27;19912;-74
2023/10/01 01:19:48;;;;;;;;;;;;;;;;;;5091310;28;20369;-74
2023/10/01 01:22:28;;;;;;;;;;;;;;;;;;5091293;28;19908;-74
2023/10/01 01:24:57;;;;;;;;;;;;;;;;;;5090961;28;19908;-74
2023/10/01 01:27:23;;;;;;;;;;;;;;;;;;5091177;28;19915;-75
2023/10/01 01:29:50;;;;;;;;;;;;;;;;;;5090727;28;19991;-75
2023/10/01 01:32:16;;;;;;;;;;;;;;;;;;5091132;28;19912;-74
2023/10/01 01:34:43;;;;;;;;;;;;;;;;;;5091279;28;20476;-74
2023/10/01 01:39:35;;;;;;;;;;;;;;;;;;5092206;27;19917;-75
2023/10/01 01:44:19;;;;;;;;;;;;;;;;;;5091236;27;19916;-74
2023/10/01 01:48:25;;;;;;;;;;;;;;;;;;5091418;27;20394;-74
2023/10/01 01:50:54;;;;;;;;;;;;;;;;;;5089709;28;19917;-75
2023/10/01 01:57:08;;;;;;;;;;;;;;;;;;5111800;27;19912;-74
2023/10/01 01:59:34;;;;;;;;;;;;;;;;;;5111724;28;19951;-73
2023/10/01 02:02:01;;;;;;;;;;;;;;;;;;5111678;28;19915;-74
2023/10/01 02:04:27;;;;;;;;;;;;;;;;;;5111628;28;19958;-75
2023/10/01 02:06:54;;;;;;;;;;;;;;;;;;5111447;28;19908;-74
2023/10/01 02:09:20;;;;;;;;;;;;;;;;;;5111614;28;20384;-74
2023/10/01 02:11:47;;;;;;;;;;;;;;;;;;5110253;28;19939;-74
2023/10/01 02:14:30;;;;;;;;;;;;;;;;;;5111125;28;20065;-74
2023/10/01 02:17:02;;;;;;;;;;;;;;;;;;5111541;28;19916;-74
2023/10/01 02:21:17;;;;;;;;;;;;;;;;;;5091092;28;19917;-74
2023/10/01 02:23:43;;;;;;;;;;;;;;;;;;5091388;28;19912;-74
2023/10/01 02:26:12;;;;;;;;;;;;;;;;;;5090873;28;19961;-73
2023/10/01 02:28:38;;;;;;;;;;;;;;;;;;5091320;28;19915;-73
2023/10/01 02:31:08;;;;;;;;;;;;;;;;;;5091168;28;19908;-74
2023/10/01 02:35:58;;;;;;;;;;;;;;;;;;5111947;27;19922;-74
2023/10/01 02:41:09;;;;;;;;;;;;;;;;;;5111283;28;19914;-74
2023/10/01 02:43:40;;;;;;;;;;;;;;;;;;5111592;28;19908;-74
2023/10/01 02:46:07;;;;;;;;;;;;;;;;;;5110446;28;19914;-74
2023/10/01 02:48:34;;;;;;;;;;;;;;;;;;5111089;28;19908;-74
2023/10/01 02:51:14;;;;;;;;;;;;;;;;;;5111357;28;19908;-74
2023/10/01 02:53:42;;;;;;;;;;;;;;;;;;5111416;28;19912;-74
2023/10/01 02:56:12;;;;;;;;;;;;;;;;;;5111056;28;19908;-74
2023/10/01 03:01:36;;;;;;;;;;;;;;;;;;5152868;27;20065;-75
2023/10/01 03:04:10;;;;;;;;;;;;;;;;;;5152962;27;19946;-75
2023/10/01 03:06:36;;;;;;;;;;;;;;;;;;5134370;27;19969;-75
2023/10/01 03:09:34;;;;;;;;;;;;;;;;;;5091129;27;19922;-74
2023/10/01 03:16:33;;;;;;;;;;;;;;;;;;5111997;27;19916;-73
2023/10/01 03:18:05;;;;;;;;;;;;;;;;;;5104052;28;19927;-74
2023/10/01 03:23:04;;;;;;;;;;;;;;;;;;5111193;28;19999;-74
2023/10/01 03:25:30;;;;;;;;;;;;;;;;;;5112170;28;20268;-74
2023/10/01 03:27:58;;;;;;;;;;;;;;;;;;5111806;28;19915;-74
2023/10/01 03:30:31;;;;;;;;;;;;;;;;;;5111102;28;19954;-74
2023/10/01 03:33:00;;;;;;;;;;;;;;;;;;5111472;28;19923;-74
2023/10/01 03:35:27;;;;;;;;;;;;;;;;;;5111440;28;20284;-74
2023/10/01 03:38:32;;;;;;;;;;;;;;;;;;5111327;27;19977;-74
2023/10/01 03:41:02;;;;;;;;;;;;;;;;;;5111636;28;19912;-74
2023/10/01 03:43:42;;;;;;;;;;;;;;;;;;5071603;28;19917;-74
2023/10/01 03:46:26;;;;;;;;;;;;;;;;;;5092208;27;19923;-74
2023/10/01 03:48:58;;;;;;;;;;;;;;;;;;5091365;28;20441;-74
2023/10/01 03:54:06;;;;;;;;;;;;;;;;;;5091461;27;19923;-74
2023/10/01 03:56:33;;;;;;;;;;;;;;;;;;5091538;28;19919;-74
2023/10/01 03:58:59;;;;;;;;;;;;;;;;;;5090140;28;20268;-73
2023/10/01 04:01:34;;;;;;;;;;;;;;;;;;5091338;28;19908;-73
2023/10/01 04:04:00;;;;;;;;;;;;;;;;;;5091656;28;20326;-74
2023/10/01 04:06:27;;;;;;;;;;;;;;;;;;5090862;28;20372;-74
2023/10/01 04:08:55;;;;;;;;;;;;;;;;;;5091142;28;19955;-74
2023/10/01 04:11:41;;;;;;;;;;;;;;;;;;5091272;28;19908;-74
2023/10/01 04:14:10;;;;;;;;;;;;;;;;;;5091129;28;19916;-74
2023/10/01 04:16:36;;;;;;;;;;;;;;;;;;5091058;28;19962;-74
2023/10/01 04:19:10;;;;;;;;;;;;;;;;;;5090616;28;19908;-74
2023/10/01 04:21:36;;;;;;;;;;;;;;;;;;5090980;28;20287;-74
2023/10/01 04:24:02;;;;;;;;;;;;;;;;;;5090877;28;19908;-74
2023/10/01 04:26:30;;;;;;;;;;;;;;;;;;5090422;28;19987;-74
2023/10/01 04:29:17;;;;;;;;;;;;;;;;;;5071539;28;20300;-74
2023/10/01 04:31:48;;;;;;;;;;;;;;;;;;5071478;28;19919;-75
2023/10/01 04:34:13;;;;;;;;;;;;;;;;;;5070779;28;19919;-74
2023/10/01 04:36:51;;;;;;;;;;;;;;;;;;5174379;27;19911;-75
2023/10/01 04:39:17;;;;;;;;;;;;;;;;;;5155132;27;19954;-74
2023/10/01 04:41:43;;;;;;;;;;;;;;;;;;5154623;27;19907;-74
2023/10/01 04:44:13;;;;;;;;;;;;;;;;;;5173687;27;19918;-74
2023/10/01 04:46:40;;;;;;;;;;;;;;;;;;5173540;27;20125;-74
2023/10/01 04:49:08;;;;;;;;;;;;;;;;;;5173599;27;20381;-74
2023/10/01 04:51:44;;;;;;;;;;;;;;;;;;5173539;27;19907;-74
2023/10/01 04:54:14;;;;;;;;;;;;;;;;;;5173318;27;19911;-75
2023/10/01 04:56:57;;;;;;;;;;;;;;;;;;5091767;27;20287;-73
2023/10/01 04:59:24;;;;;;;;;;;;;;;;;;5091351;28;20269;-75
2023/10/01 05:01:56;;;;;;;;;;;;;;;;;;5090888;28;19908;-74
2023/10/01 05:05:11;;;;;;;;;;;;;;;;;;5153465;27;19912;-74
2023/10/01 05:07:36;;;;;;;;;;;;;;;;;;5153019;27;19912;-73
2023/10/01 05:10:04;;;;;;;;;;;;;;;;;;5133906;27;19918;-74
2023/10/01 05:15:58;;;;;;;;;;;;;;;;;;5091236;27;20283;-74
2023/10/01 05:20:48;;;;;;;;;;;;;;;;;;5091645;27;19923;-75
2023/10/01 05:23:14;;;;;;;;;;;;;;;;;;5091072;28;20003;-75
2023/10/01 05:27:00;;;;;;;;;;;;;;;;;;5091781;27;19916;-74
2023/10/01 05:29:26;;;;;;;;;;;;;;;;;;5090965;28;19955;-74
2023/10/01 05:31:55;;;;;;;;;;;;;;;;;;5091323;28;19947;-75
2023/10/01 05:34:38;;;;;;;;;;;;;;;;;;5112377;27;19922;-74
2023/10/01 05:37:12;;;;;;;;;;;;;;;;;;5111335;28;19978;-74
2023/10/01 05:39:57;;;;;;;;;;;;;;;;;;5111695;28;19939;-76
2023/10/01 05:44:45;;;;;;;;;;;;;;;;;;5111493;27;19916;-73
2023/10/01 05:47:11;;;;;;;;;;;;;;;;;;5111659;28;20007;-74
2023/10/01 05:49:49;;;;;;;;;;;;;;;;;;5111626;28;19908;-75
2023/10/01 05:52:15;;;;;;;;;;;;;;;;;;5111291;28;20306;-75
2023/10/01 05:54:50;;;;;;;;;;;;;;;;;;5111675;28;19951;-75
2023/10/01 05:57:16;;;;;;;;;;;;;;;;;;5109905;28;19965;-75
2023/10/01 05:59:42;;;;;;;;;;;;;;;;;;5111566;28;19912;-75
2023/10/01 06:02:24;;;;;;;;;;;;;;;;;;5103549;28;20382;-74
2023/10/01 06:07:04;;;;;;;;;;;;;;;;;;5111546;27;20007;-74
2023/10/01 06:09:33;;;;;;;;;;;;;;;;;;5111701;28;20349;-74
2023/10/01 06:12:03;;;;;;;;;;;;;;;;;;5111258;28;19908;-75
2023/10/01 06:15:52;;;;;;;;;;;;;;;;;;5111851;27;19916;-75
2023/10/01 06:18:18;;;;;;;;;;;;;;;;;;5111276;28;19911;-75
2023/10/01 06:24:07;;;;;;;;;;;;;;;;;;5112169;27;19916;-75
2023/10/01 06:26:36;;;;;;;;;;;;;;;;;;5111367;28;20002;-76
2023/10/01 06:30:58;;;;;;;;;;;;;;;;;;5111853;27;19916;-74
2023/10/01 06:33:29;;;;;;;;;;;;;;;;;;5110716;28;19919;-74
2023/10/01 06:38:41;;;;;;;;;;;;;;;;;;5111810;28;19931;-75
2023/10/01 06:41:13;;;;;;;;;;;;;;;;;;5111235;28;20364;-74
2023/10/01 06:43:48;;;;;;;;;;;;;;;;;;5111609;28;19909;-74
2023/10/01 06:46:15;;;;;;;;;;;;;;;;;;5111328;28;19908;-74
2023/10/01 06:48:42;;;;;;;;;;;;;;;;;;5111381;28;19908;-75
2023/10/01 06:51:08;;;;;;;;;;;;;;;;;;5111360;28;19918;-75
2023/10/01 06:53:47;;;;;;;;;;;;;;;;;;5110968;28;20007;-75
2023/10/01 06:56:17;;;;;;;;;;;;;;;;;;5111815;28;19908;-75
2023/10/01 06:59:01;;;;;;;;;;;;;;;;;;5111373;28;20368;-75
2023/10/01 07:02:10;;;;;;;;;;;;;;;;;;5110965;28;20229;-74
2023/10/01 07:04:17;;;;;;;;;;;;;;;;;;5105222;28;20280;-74
2023/10/01 07:06:44;;;;;;;;;;;;;;;;;;5111140;28;19908;-74
2023/10/01 07:09:27;;;;;;;;;;;;;;;;;;5110709;28;19968;-76
2023/10/01 07:11:53;;;;;;;;;;;;;;;;;;5111060;28;19908;-75
2023/10/01 07:14:30;;;;;;;;;;;;;;;;;;5111352;28;19908;-75
2023/10/01 07:16:56;;;;;;;;;;;;;;;;;;5109743;28;19908;-75
2023/10/01 07:19:23;;;;;;;;;;;;;;;;;;5110895;28;19915;-75
2023/10/01 07:21:56;;;;;;;;;;;;;;;;;;5110360;28;19912;-75
2023/10/01 07:24:23;;;;;;;;;;;;;;;;;;5110810;28;19960;-75
2023/10/01 07:26:50;;;;;;;;;;;;;;;;;;5110752;28;19908;-75
2023/10/01 07:30:46;;;;;;;;;;;;;;;;;;5111513;27;19916;-75
2023/10/01 07:33:14;;;;;;;;;;;;;;;;;;5111926;28;20279;-75
2023/10/01 07:35:40;;;;;;;;;;;;;;;;;;5111404;28;19908;-75
2023/10/01 07:38:06;;;;;;;;;;;;;;;;;;5111716;28;19965;-75
2023/10/01 07:40:52;;;;;;;;;;;;;;;;;;5111561;28;19908;-74
2023/10/01 07:43:18;;;;;;;;;;;;;;;;;;5111301;28;19930;-74
2023/10/01 07:47:48;;;;;;;463.08;270.67;;;;;;;;;;5090495;27;20371;-75
2023/10/01 07:50:13;;;;;;;;;;;;;;;;;;5091491;28;20032;-74
2023/10/01 07:52:40;;;;;;;;;;;;;;;;;;5090114;28;19915;-76
2023/10/01 07:55:29;;;;;;;;;;;;;;;;;;5091385;28;19904;-75
2023/10/01 07:57:52;;;;;;;;;;;;;;;;;;5090873;28;19911;-75
2023/10/01 08:00:29;;;;;;;;;;;;;;;;;;5091196;28;20376;-74
2023/10/01 08:05:40;;;;;;;;;;;;;;;;;;5090531;28;19923;-74
2023/10/01 08:08:07;;;;;;;;;;;;;;;;;;5091085;28;19995;-75
2023/10/01 08:10:37;;;;;;;;;;;;;;;;;;5090999;28;19928;-75
2023/10/01 08:13:06;;;;;;;;;;;;;;;;;;5091016;28;19905;-75
2023/10/01 08:15:38;;;;;;;;;;;;;;;;;;5091030;28;19904;-76
2023/10/01 08:20:58;;;;;;;;;;;;;;;;;;5090966;28;20455;-74
2023/10/01 08:23:24;;;;;;;;;;;;;;;;;;5090793;28;19911;-74
2023/10/01 08:25:55;;;;;;;;;;;;;;;;;;5090276;28;20291;-74
2023/10/01 08:30:49;;;;;;;;;;;;;;;;;;5090691;28;20371;-75
2023/10/01 08:33:24;;;;;;;;;;;;;;;;;;5090253;28;19911;-75
2023/10/01 08:35:56;;;;;;;;;;;;;;;;;;5090571;28;19909;-74
2023/10/01 08:38:22;;;;;;;;;;;;;;;;;;5089543;28;19926;-75
2023/10/01 08:40:49;;;;;;;;;;;;;;;;;;5090556;28;19904;-75
2023/10/01 08:43:16;;;;;;;;;;;;;;;;;;5091027;28;19973;-75
2023/10/01 08:45:43;;;;;;;;;;;;;;;;;;5089498;28;20312;-75
2023/10/01 08:48:09;;;;;;;;;;;;;;;;;;5090148;28;20356;-74
2023/10/01 08:50:36;;;;;;;;;;;;;;;;;;5090827;28;19947;-75
2023/10/01 08:53:09;;;;;;;;;;;;;;;;;;5090023;28;19904;-75
2023/10/01 08:55:35;;;;;;;;;;;;;;;;;;5088891;28;20352;-75
2023/10/01 08:58:13;;;;;;;;;;;;;;;;;;5080784;28;19919;-75
2023/10/01 09:00:48;;;;;;;;;;;;;;;;;;5076221;28;19909;-75
2023/10/01 09:03:26;;;;;;;;;;;;;;;;;;5075247;28;19905;-74
2023/10/01 09:06:01;;;;;;;;;;;;;;;;;;5075162;28;19995;-75
2023/10/01 09:08:42;;;;;;;;;;;;;;;;;;5076067;28;19962;-75
2023/10/01 09:11:13;;;;;;;;;;;;;;;;;;5077023;28;19905;-75
2023/10/01 09:13:39;;;;;;;;;;;;;;;;;;5076347;28;19949;-75
2023/10/01 09:16:06;;;;;;;;;;;;;;;;;;5075809;28;19909;-75
2023/10/01 09:18:37;;;;;;;;;;;;;;;;;;5076213;28;19904;-75
2023/10/01 09:21:08;;;;;;;;;;;;;;;;;;5075763;28;19939;-75
2023/10/01 09:23:54;;;;;;;;;;;;;;;;;;5076548;28;19911;-75
2023/10/01 09:26:37;;;;;;;;;;;;;;;;;;5076062;28;19919;-75
2023/10/01 09:29:13;;;;;;;;;;;;;;;;;;5075810;28;19947;-75
2023/10/01 09:31:39;;;;;;;;;;;;;;;;;;5076034;28;19999;-75
2023/10/01 09:34:05;;;;;;;;;;;;;;;;;;5076042;28;20418;-75
2023/10/01 09:36:45;;;;;;;441.93;269.30;;;;;;;;;;5074858;28;20394;-75
2023/10/01 09:39:13;;;;;;;;;;;;;;;;;;5076204;28;20017;-75
2023/10/01 09:41:40;;;;;;;;;;;;;;;;;;5075766;28;19911;-75
2023/10/01 09:44:07;;;;;;;;;;;;;;;;;;5075330;28;19908;-75
2023/10/01 09:46:34;;;;;;;;;;;;;;;;;;5086505;28;19985;-75
2023/10/01 09:49:02;;;;;;;;;;;;;;;;;;5095900;28;19954;-74
2023/10/01 09:51:31;;;;;;;;;;;;;;;;;;5095454;28;20375;-74
2023/10/01 09:54:00;;;;;;;;;;;;;;;;;;5096288;28;19904;-75
2023/10/01 09:56:29;;;;;;;;;;;;;;;;;;5078362;28;20356;-76
2023/10/01 09:58:58;;;;;;;;;;;;;;;;;;5095836;28;19927;-75
2023/10/01 10:01:27;;;;;;;;;;;;;;;;;;5096036;28;19957;-76
2023/10/01 10:03:54;;;;;;;;;;;;;;;;;;5077405;28;19965;-75
2023/10/01 10:06:24;;;;;;;;;;;;;;;;;;5095894;28;20299;-75
2023/10/01 10:08:52;;;;;;;;;;;;;;;;;;5095216;28;20329;-75
2023/10/01 10:11:26;;;;;;;;;;;;;;;;;;5095043;28;19910;-76
2023/10/01 10:13:57;;;;;;;;;;;;;;;;;;5095680;28;19904;-75
2023/10/01 10:16:32;;;;;;;;;;;;;;;;;;5095664;28;19912;-75
2023/10/01 10:19:04;;;;;;;;;;;;;;;;;;5095343;28;19908;-76
2023/10/01 10:21:36;;;;;;;;;;;;;;;;;;5095525;28;19974;-75
2023/10/01 10:24:02;;;;;;;;;;;;;;;;;;5095287;28;20310;-75
2023/10/01 10:26:28;;;;;;;;;;;;;;;;;;5094967;28;19912;-75
2023/10/01 10:28:54;;;;;;;;;;;;;;;;;;5095465;28;19904;-75
2023/10/01 10:31:29;;;;;;;;;;;;;;;;;;5094904;28;19912;-75
2023/10/01 10:33:55;;;;;;;;;;;;;;;;;;5076986;28;19911;-75
2023/10/01 10:36:27;;;;;;;;;;;;;;;;;;5095111;28;19904;-76
2023/10/01 10:38:53;;;;;;;;;;;;;;;;;;5094665;28;19942;-75
2023/10/01 10:41:25;;;;;;;;;;;;;;;;;;5094901;28;19939;-75
2023/10/01 10:43:51;;;;;;;;;;;;;;;;;;5094866;28;20291;-75
2023/10/01 10:46:17;;;;;;;;;;;;;;;;;;5085932;28;19916;-75
2023/10/01 10:48:43;;;;;;;;;;;;;;;;;;5094337;28;19908;-75
2023/10/01 10:51:09;;;;;;;;;;;;;;;;;;5095032;28;19904;-75
2023/10/01 10:53:37;;;;;;;;;;;;;;;;;;5094456;28;19956;-75
2023/10/01 10:56:05;;;;;;;;;;;;;;;;;;5094872;28;19986;-75
2023/10/01 10:58:40;;;;;;;;;;;;;;;;;;5094520;28;19903;-75
2023/10/01 11:01:22;;;;;;;;;;;;;;;;;;5094425;28;19904;-75
2023/10/01 11:03:49;;;;;;;;;;;;;;;;;;5076077;28;20352;-75
2023/10/01 11:06:17;;;;;;;;;;;;;;;;;;5094214;28;19914;-75
2023/10/01 11:08:52;;;;;;;;;;;;;;;;;;5093794;28;19954;-75
2023/10/01 11:11:18;;;;;;;;;;;;;;;;;;5095020;28;20336;-75
2023/10/01 11:13:47;;;;;;;;;;;;;;;;;;5075661;28;19911;-75
2023/10/01 11:16:16;;;;;;;;;;;;;;;;;;5093594;28;19943;-75
2023/10/01 11:18:44;;;;;;;;;;;;;;;;;;5076456;28;19999;-75
2023/10/01 11:21:13;;;;;;;;;;;;;;;;;;5093608;28;19934;-75
2023/10/01 11:23:39;;;;;;;;;;;;;;;;;;5076348;28;19904;-75
2023/10/01 11:26:26;;;;;;;;;;;;;;;;;;5094111;28;20256;-75
2023/10/01 11:28:51;;;;;;;;;;;;;;;;;;5094087;28;20348;-75
2023/10/01 11:31:25;;;;;;;486.90;294.58;;;;;;;;;;5092996;28;20374;-75
2023/10/01 11:33:51;;;;;;;;;;;;;;;;;;5094830;28;20016;-75
2023/10/01 11:36:23;;;;;;;;;;;;;;;;;;5093793;28;19935;-76
2023/10/01 11:38:50;;;;;;;;;;;;;;;;;;5094175;28;20336;-75
2023/10/01 11:41:18;;;;;;;;;;;;;;;;;;5076097;28;19904;-75
2023/10/01 11:44:02;;;;;;;;;;;;;;;;;;5093565;28;19904;-75
2023/10/01 11:47:30;;;;;;;;;;;;;;;;;;5075693;28;19923;-75
2023/10/01 11:49:17;;;;;;;;;;;;;;;;;;5085071;28;19908;-75
2023/10/01 11:51:45;;;;;;;;;;;;;;;;;;5093877;28;19911;-76
2023/10/01 11:54:14;;;;;;;;;;;;;;;;;;5094131;28;19904;-75
2023/10/01 11:56:43;;;;;;;;;;;;;;;;;;5075469;28;19930;-74
2023/10/01 11:59:10;;;;;;;;;;;;;;;;;;5075788;28;19903;-75
2023/10/01 12:01:39;;;;;;;;;;;;;;;;;;5093793;28;19943;-75
2023/10/01 12:04:05;;;;;;;;;;;;;;;;;;5093684;28;20383;-75
2023/10/01 12:06:34;;;;;;;;;;;;;;;;;;5093992;28;20322;-75
2023/10/01 12:09:00;;;;;;;;;;;;;;;;;;5094221;28;19908;-77
2023/10/01 12:11:28;;;;;;;;;;;;;;;;;;5093785;28;20038;-74
2023/10/01 12:14:08;;;;;;;;;;;;;;;;;;5094187;28;19974;-75
2023/10/01 12:16:34;;;;;;;;;;;;;;;;;;5094372;28;19904;-75
2023/10/01 12:21:45;;;;;;;;;;;;;;;;;;5095609;28;20288;-75
2023/10/01 12:24:13;;;;;;;;;;;;;;;;;;5075193;28;20207;-75
2023/10/01 12:26:38;;;;;;;;;;;;;;;;;;5075479;28;19912;-75
2023/10/01 12:29:12;;;;;;;;;;;;;;;;;;5093567;28;20370;-75
2023/10/01 12:31:40;;;;;;;;;;;;;;;;;;5075296;28;20033;-75
2023/10/01 12:34:06;;;;;;;;;;;;;;;;;;5097052;28;19962;-75
2023/10/01 12:36:41;;;;;;;;;;;;;;;;;;5097348;28;20348;-76
2023/10/01 12:41:47;;;;;;;;;;;;;;;;;;5097631;28;19995;-75
2023/10/01 12:44:25;;;;;;;;;;;;;;;;;;5097231;28;19904;-73
2023/10/01 12:46:54;;;;;;;;;;;;;;;;;;5096490;28;19962;-74
2023/10/01 12:49:20;;;;;;;;;;;;;;;;;;5078928;28;20279;-74
2023/10/01 12:51:53;;;;;;;;;;;;;;;;;;5097041;28;19965;-75
2023/10/01 12:54:19;;;;;;;;;;;;;;;;;;5096501;28;19904;-75
2023/10/01 12:56:48;;;;;;;;;;;;;;;;;;5096896;28;19904;-74
2023/10/01 12:59:20;;;;;;;;;;;;;;;;;;5096340;28;20318;-75
2023/10/01 13:01:52;;;;;;;;;;;;;;;;;;5096781;28;19957;-74
2023/10/01 13:04:25;;;;;;;;;;;;;;;;;;5096760;28;20352;-75
2023/10/01 13:06:51;;;;;;;;;;;;;;;;;;5096691;28;19912;-75
2023/10/01 13:12:15;;;;;;;;;;;;;;;;;;5097648;28;19911;-75
2023/10/01 13:14:41;;;;;;;;;;;;;;;;;;5078787;28;20346;-75
2023/10/01 13:17:19;;;;;;;;;;;;;;;;;;5096707;28;19959;-75
2023/10/01 13:19:47;;;;;;;;;;;;;;;;;;5096812;28;19919;-75
2023/10/01 13:22:13;;;;;;;;;;;;;;;;;;5077803;28;19904;-74
2023/10/01 13:24:39;;;;;;;;;;;;;;;;;;5096456;28;19913;-75
2023/10/01 13:27:13;;;;;;;;;;;;;;;;;;5078156;28;20287;-75
2023/10/01 13:29:39;;;;;;;;;;;;;;;;;;5096645;28;20269;-74
2023/10/01 13:32:15;;;;;;;;;;;;;;;;;;5096209;28;19904;-74
2023/10/01 13:34:54;;;;;;;;;;;;;;;;;;5095779;28;19957;-74
2023/10/01 14:10:25;;;;;;;;;;;;;;;;;;5095189;28;20007;-76
2023/10/01 14:13:00;;;;;;;;;;;;;;;;;;5095161;28;20355;-75
2023/10/01 14:15:26;;;;;;;;;;;;;;;;;;5096438;28;19939;-76
2023/10/01 14:17:52;;;;;;;;;;;;;;;;;;5095104;28;19958;-75
2023/10/01 14:20:37;;;;;;;;;;;;;;;;;;5095307;28;19912;-74
2023/10/01 14:23:03;;;;;;;;;;;;;;;;;;5095303;28;20477;-74
2023/10/01 14:25:30;;;;;;;;;;;;;;;;;;5094744;28;19904;-74
2023/10/01 14:27:59;;;;;;;;;;;;;;;;;;5095121;28;19994;-74
2023/10/01 14:30:25;;;;;;;;;;;;;;;;;;5094422;28;19904;-75
2023/10/01 14:32:51;;;;;;;;;;;;;;;;;;5094567;28;19904;-75
2023/10/01 14:35:17;;;;;;;;;;;;;;;;;;5095081;28;19903;-76
2023/10/01 14:37:53;;;;;;;;;;;;;;;;;;5094571;28;19995;-76
2023/10/01 14:40:19;;;;;;;;;;;;;;;;;;5077063;28;19904;-75
2023/10/01 14:42:45;;;;;;;;;;;;;;;;;;5094920;28;19904;-76
2023/10/01 14:45:11;;;;;;;;;;;;;;;;;;5076276;28;19904;-75
2023/10/01 14:47:42;;;;;;;;;;;;;;;;;;5094530;28;19923;-75
2023/10/01 14:50:08;;;;;;;;;;;;;;;;;;5094876;28;19950;-76
2023/10/01 14:52:40;;;;;;;;;;;;;;;;;;5094394;28;19904;-76
2023/10/01 14:55:06;;;;;;;;;;;;;;;;;;5094172;28;20367;-77
2023/10/01 14:57:34;;;;;;;;;;;;;;;;;;5094621;28;19904;-74
2023/10/01 15:00:01;;;;;;;;;;;;;;;;;;5094326;28;19956;-74
2023/10/01 15:02:28;;;;;;;;;;;;;;;;;;5094609;28;19908;-74
2023/10/01 15:04:54;;;;;;;;;;;;;;;;;;5076379;28;19995;-75
2023/10/01 15:07:21;;;;;;;;;;;;;;;;;;5094170;28;20395;-75
2023/10/01 15:09:49;;;;;;;;;;;;;;;;;;5094514;28;19995;-75
2023/10/01 15:12:26;;;;;;;;;;;;;;;;;;5094371;28;20010;-75
2023/10/01 15:14:55;;;;;;;;;;;;;;;;;;5094051;28;19911;-75
2023/10/01 15:17:21;;;;;;;;;;;;;;;;;;5094316;28;20316;-75
2023/10/01 15:19:49;;;;;;;;;;;;;;;;;;5094115;28;19904;-75
2023/10/01 15:22:17;;;;;;;;;;;;;;;;;;5094465;28;19904;-75
2023/10/01 15:24:43;;;;;;;;;;;;;;;;;;5094225;28;19904;-75
2023/10/01 15:27:09;;;;;;;;;;;;;;;;;;5094013;28;20370;-75
2023/10/01 15:29:35;;;;;;;;;;;;;;;;;;5076091;28;19904;-75
2023/10/01 15:32:01;;;;;;;;;;;;;;;;;;5094127;28;19912;-74
2023/10/01 15:34:38;;;;;;;;;;;;;;;;;;5075454;28;19912;-75
2023/10/01 15:37:04;;;;;;;;;;;;;;;;;;5094005;28;19904;-75
2023/10/01 15:42:11;;;;;;;;;;;;;;;;;;5093694;28;20253;-75
2023/10/01 15:44:43;;;;;;;;;;;;;;;;;;5094012;28;20344;-74
2023/10/01 15:47:09;;;;;;;;;;;;;;;;;;5093780;28;19915;-74
2023/10/01 15:49:39;;;;;;;;;;;;;;;;;;5075337;28;19904;-76
2023/10/01 15:52:10;;;;;;;;;;;;;;;;;;5093890;28;19990;-75
2023/10/01 15:54:36;;;;;;;;;;;;;;;;;;5093830;28;19911;-75
2023/10/01 15:57:04;;;;;;;;;;;;;;;;;;5093448;28;20279;-75
2023/10/01 15:59:30;;;;;;;;;;;;;;;;;;5093808;28;19962;-75
2023/10/01 16:01:56;;;;;;;;;;;;;;;;;;5093425;28;20349;-75
2023/10/01 16:04:22;;;;;;;;;;;;;;;;;;5093980;28;19904;-75
2023/10/01 16:06:48;;;;;;;;;;;;;;;;;;5094217;28;19969;-75
2023/10/01 16:09:14;;;;;;;;;;;;;;;;;;5097545;28;19908;-75
2023/10/01 16:11:40;;;;;;;;;;;;;;;;;;5097688;28;19915;-75
2023/10/01 16:14:09;;;;;;;;;;;;;;;;;;5079479;28;19904;-75
2023/10/01 16:16:36;;;;;;;;;;;;;;;;;;5097410;28;19907;-76
2023/10/01 16:19:05;;;;;;;;;;;;;;;;;;5097706;28;19930;-76
2023/10/01 16:21:40;;;;;;;;;;;;;;;;;;5097584;28;19904;-76
2023/10/01 16:24:06;;;;;;;;;;;;;;;;;;5097520;28;20443;-75
2023/10/01 16:26:32;;;;;;;;;;;;;;;;;;5097366;28;19995;-76
2023/10/01 16:28:58;;;;;;;;;;;;;;;;;;5097593;28;19970;-75
2023/10/01 16:31:26;;;;;;;;;;;;;;;;;;5096995;28;20350;-76
2023/10/01 16:33:59;;;;;;;;;;;;;;;;;;5097894;28;19908;-76
2023/10/01 16:36:27;;;;;;;;;;;;;;;;;;5097418;28;19904;-76
2023/10/01 16:38:53;;;;;;;;;;;;;;;;;;5078654;28;20383;-74
2023/10/01 16:41:19;;;;;;;;;;;;;;;;;;5097146;28;19904;-75
2023/10/01 16:43:52;;;;;;;;;;;;;;;;;;5097167;28;20320;-76
2023/10/01 16:46:18;;;;;;;;;;;;;;;;;;5096452;28;19916;-75
2023/10/01 16:48:46;;;;;;;;;;;;;;;;;;5096945;28;19911;-75
2023/10/01 16:53:43;;;;;;;;;;;;;;;;;;5097300;28;19953;-75
2023/10/01 16:56:24;;;;;;;;;;;;;;;;;;5096944;28;19957;-75
2023/10/01 16:58:53;;;;;;;;;;;;;;;;;;5078424;28;19908;-75
2023/10/01 17:01:20;;;;;;;;;;;;;;;;;;5096910;28;19904;-75
2023/10/01 17:03:50;;;;;;;;;;;;;;;;;;5096689;28;19911;-75
2023/10/01 17:06:17;;;;;;;;;;;;;;;;;;5096246;28;19915;-75
2023/10/01 17:08:43;;;;;;;;;;;;;;;;;;5096617;28;19946;-75
2023/10/01 17:11:09;;;;;;;;;;;;;;;;;;5078498;28;20384;-76
2023/10/01 17:13:36;;;;;;;;;;;;;;;;;;5096313;28;19944;-75
2023/10/01 17:16:01;;;;;;;;;;;;;;;;;;5096509;28;19908;-75
2023/10/01 17:18:38;;;;;;;;;;;;;;;;;;5096393;28;19904;-75
2023/10/01 17:21:12;;;;;;;;;;;;;;;;;;5096060;28;19904;-76
2023/10/01 17:23:39;;;;;;;;;;;;;;;;;;5096479;28;20355;-75
2023/10/01 17:26:05;;;;;;;;;;;;;;;;;;5096401;28;19972;-75
2023/10/01 17:28:31;;;;;;;;;;;;;;;;;;5095933;28;19904;-75
2023/10/01 17:30:58;;;;;;;;;;;;;;;;;;5096179;28;19904;-75
2023/10/01 17:33:24;;;;;;;;;;;;;;;;;;5095936;28;19911;-76
2023/10/01 17:35:50;;;;;;;;;;;;;;;;;;5096230;28;19908;-76
2023/10/01 17:40:17;;;;;;;;;;;;;;;;;;5112314;27;20268;-75
2023/10/01 17:42:43;;;;;;;;;;;;;;;;;;5111352;28;19916;-76
2023/10/01 17:45:09;;;;;;;;;;;;;;;;;;5111670;28;19915;-75
2023/10/01 17:47:35;;;;;;;;;;;;;;;;;;5111178;28;19908;-75
2023/10/01 17:50:50;;;;;;;;;;;;;;;;;;5091503;27;19923;-75
2023/10/01 17:53:17;;;;;;;;;;;;;;;;;;5090081;28;20355;-75
2023/10/01 17:55:43;;;;;;;;;;;;;;;;;;5089601;28;19908;-75
2023/10/01 17:58:09;;;;;;;;;;;;;;;;;;5091317;28;19958;-75
2023/10/01 18:00:38;;;;;;;;;;;;;;;;;;5091453;28;19909;-77
2023/10/01 18:03:04;;;;;;;;;;;;;;;;;;5090781;28;20383;-74
2023/10/01 18:05:30;;;;;;;;;;;;;;;;;;5089867;28;19908;-75
2023/10/01 18:08:03;;;;;;;;;;;;;;;;;;5091049;28;19916;-75
2023/10/01 18:10:28;;;;;;;;;;;;;;;;;;5090858;28;20305;-75
2023/10/01 18:12:54;;;;;;;;;;;;;;;;;;5091184;28;19953;-75
2023/10/01 18:15:20;;;;;;;;;;;;;;;;;;5091160;28;19914;-75
2023/10/01 18:19:24;;;;;;;;;;;;;;;;;;5112279;27;19916;-74
2023/10/01 18:21:53;;;;;;;;;;;;;;;;;;5111762;28;20368;-76
2023/10/01 18:24:21;;;;;;;;;;;;;;;;;;5110067;28;19915;-76
2023/10/01 18:26:46;;;;;;;;;;;;;;;;;;5111542;28;20013;-75
2023/10/01 18:31:23;;;;;;;;;;;;;;;;;;5071138;28;19917;-75
2023/10/01 18:33:53;;;;;;;;;;;;;;;;;;5071599;28;19916;-76
2023/10/01 18:38:33;;;;;;;;;;;;;;;;;;5091100;28;19923;-77
2023/10/01 18:40:59;;;;;;;;;;;;;;;;;;5091392;28;20007;-75
2023/10/01 18:43:25;;;;;;;;;;;;;;;;;;5091578;28;19908;-75
2023/10/01 18:45:56;;;;;;;;;;;;;;;;;;5089563;28;19915;-76
2023/10/01 18:48:22;;;;;;;;;;;;;;;;;;5091562;28;20003;-76
2023/10/01 18:51:29;;;;;;;;;;;;;;;;;;5132456;27;19916;-76
2023/10/01 18:53:56;;;;;;;;;;;;;;;;;;5132323;28;20349;-75
2023/10/01 18:58:17;;;;;;;;;;;;;;;;;;5111972;27;19916;-75
2023/10/01 19:00:43;;;;;;;;;;;;;;;;;;5110543;28;19912;-76
2023/10/01 19:03:11;;;;;;;;;;;;;;;;;;5111697;28;19908;-76
2023/10/01 19:05:37;;;;;;;;;;;;;;;;;;5111321;28;19908;-76
2023/10/01 19:08:26;;;;;;;;;;;;;;;;;;5112112;27;19922;-76
2023/10/01 19:10:52;;;;;;;;;;;;;;;;;;5111804;28;20007;-77